Time;durP1;ratioP1;P1;durP2;ratioP2;P2;SDS_P1;SDS_P2;PMS_P1;PMS_P2;Temp;Humidity;BMP_temperature;BMP_pressure;BME280_temperature;BME280_humidity;BME280_pressure;Samples;Min_cycle;Max_cycle;Signal;HPM_P1;HPM_P2
2023/01/10 00:02:12;;;;;;;;;;;6.20;92.40;;;;;;5035183;28;19942;-88
2023/01/10 00:04:37;;;;;;;;;;;6.20;92.50;;;;;;5035175;28;19963;-88
2023/01/10 00:07:03;;;;;;;;;;;6.20;92.70;;;;;;5034994;28;20035;-88
2023/01/10 00:09:28;;;;;;;;;;;6.10;93.10;;;;;;5035173;28;19938;-88
2023/01/10 00:14:38;;;;;;;;;;;6.10;93.30;;;;;;5034991;28;20412;-88
2023/01/10 00:17:03;;;;;;;;;;;6.10;93.50;;;;;;5034558;28;19976;-89
2023/01/10 00:19:29;;;;;;;;;;;6.10;93.40;;;;;;5034967;28;19938;-89
2023/01/10 00:22:03;;;;;;;;;;;6.00;93.40;;;;;;5017037;28;20415;-89
2023/01/10 00:24:29;;;;;;;;;;;6.00;93.50;;;;;;5035114;28;19941;-89
2023/01/10 00:26:54;;;;;;;;;;;6.00;93.60;;;;;;5034580;28;19950;-88
2023/01/10 00:29:21;;;;;;;;;;;5.90;93.60;;;;;;5034596;28;20404;-88
2023/01/10 00:31:47;;;;;;;;;;;5.90;93.70;;;;;;5034432;28;19947;-88
2023/01/10 00:34:12;;;;;;;;;;;5.90;94.00;;;;;;5033878;28;19964;-88
2023/01/10 00:36:38;;;;;;;;;;;5.80;94.20;;;;;;5034661;28;20455;-89
2023/01/10 00:39:04;;;;;;;;;;;5.70;94.30;;;;;;5034787;28;19983;-88
2023/01/10 00:44:14;;;;;;;;;;;5.50;94.30;;;;;;5034215;28;20461;-88
2023/01/10 00:46:39;;;;;;;;;;;5.40;94.30;;;;;;5034473;28;20074;-88
2023/01/10 00:49:08;;;;;;;;;;;5.40;94.30;;;;;;5034332;28;19939;-88
2023/01/10 00:51:33;;;;;;;;;;;5.40;94.40;;;;;;5034353;28;19945;-89
2023/01/10 00:53:59;;;;;;;;;;;5.30;94.40;;;;;;5033950;28;19974;-89
2023/01/10 00:56:25;;;;;;;;;;;5.30;94.30;;;;;;5034151;28;19940;-89
2023/01/10 00:58:50;;;;;;;;;;;5.30;94.10;;;;;;5034190;28;19946;-89
2023/01/10 01:01:16;;;;;;;;;;;5.30;93.90;;;;;;5034092;28;19988;-89
2023/01/10 01:03:41;;;;;;;;;;;5.30;93.70;;;;;;5016073;28;20433;-89
2023/01/10 01:06:07;;;;;;;;;;;5.30;93.50;;;;;;5034645;28;20310;-89
2023/01/10 01:08:33;;;;;;;;;;;5.30;93.30;;;;;;5034001;28;19958;-88
2023/01/10 01:10:58;;;;;;;;;;;5.30;92.90;;;;;;5033981;28;19941;-88
2023/01/10 01:13:24;;;;;;;;;;;5.40;92.50;;;;;;5033661;28;19943;-88
2023/01/10 01:15:50;;;;;;;;;;;5.60;92.10;;;;;;5033692;28;20174;-88
2023/01/10 01:18:18;;;;;;;;;;;5.90;91.60;;;;;;5033826;28;20030;-89
2023/01/10 01:20:44;;;;;;;;;;;6.10;90.90;;;;;;5033645;28;20404;-89
2023/01/10 01:23:10;;;;;;;;;;;6.40;90.30;;;;;;5033729;28;20020;-89
2023/01/10 01:25:36;;;;;;;;;;;6.50;90.10;;;;;;5033423;28;19986;-89
2023/01/10 01:28:02;;;;;;;;;;;6.80;89.20;;;;;;5033972;28;19984;-89
2023/01/10 01:30:27;;;;;;;;;;;7.00;88.80;;;;;;5033669;28;19939;-89
2023/01/10 01:32:53;;;;;;;;;;;7.10;88.40;;;;;;5033655;28;19997;-88
2023/01/10 01:35:19;;;;;;;;;;;7.20;88.20;;;;;;5033569;28;19938;-88
2023/01/10 01:37:44;;;;;;;;;;;7.30;88.10;;;;;;5033534;28;20339;-89
2023/01/10 01:40:14;;;;;;;;;;;7.40;87.90;;;;;;5015657;28;20043;-89
2023/01/10 01:42:40;;;;;;;;;;;7.40;87.90;;;;;;5033379;28;19952;-89
2023/01/10 01:45:25;;;;;;;;;;;7.50;87.60;;;;;;5032820;28;19946;-89
2023/01/10 01:47:51;;;;;;;;;;;7.50;87.30;;;;;;5033607;28;20049;-89
2023/01/10 01:50:29;;;;;;;;;;;7.50;87.10;;;;;;5033317;28;20084;-89
2023/01/10 01:52:56;;;;;;;;;;;7.60;86.90;;;;;;5033036;28;20004;-88
2023/01/10 01:55:23;;;;;;;;;;;7.60;86.60;;;;;;5015247;28;19947;-88
2023/01/10 01:57:50;;;;;;;;;;;7.60;87.00;;;;;;5015486;28;19949;-88
2023/01/10 02:00:16;;;;;;;;;;;7.40;86.80;;;;;;5033121;28;20420;-88
2023/01/10 02:02:45;;;;;;;;;;;7.30;86.90;;;;;;5033187;28;20036;-89
2023/01/10 02:05:13;;;;;;;;;;;7.30;87.20;;;;;;5032756;28;19958;-88
2023/01/10 02:07:40;;;;;;;;;;;7.20;87.10;;;;;;5033167;28;20015;-89
2023/01/10 02:10:09;;;;;;;;;;;7.10;87.20;;;;;;5015410;28;19945;-88
2023/01/10 02:12:35;;;;;;;;;;;7.00;87.30;;;;;;5033096;28;19947;-89
2023/01/10 02:15:01;;;;;;;;;;;6.90;87.70;;;;;;5032798;28;19952;-88
2023/01/10 02:17:26;;;;;;;;;;;6.80;87.20;;;;;;5032756;28;19997;-89
2023/01/10 02:20:09;;;;;;;;;;;6.50;87.20;;;;;;5033017;28;20378;-88
2023/01/10 02:22:53;;;;;;;;;;;6.40;87.60;;;;;;5015106;28;20415;-88
2023/01/10 02:25:37;;;;;;;;;;;6.10;88.00;;;;;;5032684;28;19955;-89
2023/01/10 02:28:11;;;;;;;;;;;5.90;88.50;;;;;;5032872;28;19945;-88
2023/01/10 02:30:44;;;;;;;;;;;5.70;89.30;;;;;;5032897;28;19937;-89
2023/01/10 02:33:19;;;;;;;;;;;5.70;89.60;;;;;;5032608;28;19982;-89
2023/01/10 02:35:53;;;;;;;;;;;5.60;90.20;;;;;;5032749;28;19953;-88
2023/01/10 02:38:21;;;;;;;;;;;5.60;90.20;;;;;;5033081;28;19943;-89
2023/01/10 02:40:50;;;;;;;;;;;5.50;90.50;;;;;;5032751;28;19961;-89
2023/01/10 02:43:21;;;;;;;;;;;5.40;90.80;;;;;;5032488;28;20036;-89
2023/01/10 02:45:49;;;;;;;;;;;5.50;91.40;;;;;;5015102;28;19933;-89
2023/01/10 02:48:15;;;;;;;;;;;5.50;91.30;;;;;;5032684;28;20527;-89
2023/01/10 02:50:41;;;;;;;;;;;5.40;91.30;;;;;;5032666;28;19989;-89
2023/01/10 02:53:10;;;;;;;;;;;5.50;91.10;;;;;;5032385;28;19933;-89
2023/01/10 02:55:45;;;;;;;;;;;5.40;90.80;;;;;;5032729;28;20380;-89
2023/01/10 02:58:21;;;;;;;;;;;5.30;91.00;;;;;;5035967;28;19948;-89
2023/01/10 03:01:05;;;;;;;;;;;5.20;90.80;;;;;;5036340;28;20399;-88
2023/01/10 03:03:36;;;;;;;;;;;5.10;91.00;;;;;;5036145;28;19946;-89
2023/01/10 03:06:10;;;;;;;;;;;5.40;90.40;;;;;;5036294;28;19987;-88
2023/01/10 03:08:39;;;;;;;;;;;5.20;90.30;;;;;;5036292;28;19944;-89
2023/01/10 03:11:06;;;;;;;;;;;5.10;90.70;;;;;;5036242;28;20402;-89
2023/01/10 03:13:35;;;;;;;;;;;5.00;90.80;;;;;;5018203;28;19939;-88
2023/01/10 03:16:01;;;;;;;;;;;4.90;90.90;;;;;;5062560;23;19985;-88
2023/01/10 03:18:31;;;;;;;;;;;4.90;91.20;;;;;;5076006;28;19958;-88
2023/01/10 03:20:57;;;;;;;;;;;4.90;91.40;;;;;;5075947;28;19959;-88
2023/01/10 03:23:23;;;;;;;;;;;4.80;91.20;;;;;;5075287;28;20381;-88
2023/01/10 03:25:53;;;;;;;;;;;4.70;90.70;;;;;;5075115;28;20277;-89
2023/01/10 03:28:23;;;;;;;;;;;4.90;91.50;;;;;;5075892;28;19992;-88
2023/01/10 03:31:07;;;;;;;;;;;5.00;91.50;;;;;;5076044;28;19994;-88
2023/01/10 03:33:33;;;;;;;;;;;5.00;90.90;;;;;;5072381;28;19945;-89
2023/01/10 03:36:19;;;;;;;;;;;5.10;91.10;;;;;;5055708;28;19942;-88
2023/01/10 03:38:54;;;;;;;;;;;5.10;90.40;;;;;;5055677;28;19938;-88
2023/01/10 03:41:48;;;;;;;;;;;4.80;90.30;;;;;;5055733;28;19967;-88
2023/01/10 03:47:03;;;;;;;;;;;4.40;90.00;;;;;;5075593;28;19988;-88
2023/01/10 03:49:30;;;;;;;;;;;4.30;90.50;;;;;;5075458;28;20036;-88
2023/01/10 03:51:56;;;;;;;;;;;4.30;90.70;;;;;;5074297;28;20007;-89
2023/01/10 03:54:22;;;;;;;;;;;4.60;90.90;;;;;;5045634;28;19944;-88
2023/01/10 03:56:48;;;;;;;;;;;4.70;90.40;;;;;;5035354;28;19994;-89
2023/01/10 03:59:19;;;;;;;;;;;4.50;90.10;;;;;;5035336;28;19936;-88
2023/01/10 04:01:45;;;;;;;;;;;4.40;90.30;;;;;;5035221;28;20003;-88
2023/01/10 04:04:11;;;;;;;;;;;4.20;89.90;;;;;;5042663;28;20005;-88
2023/01/10 04:06:36;;;;;;;;;;;4.20;90.30;;;;;;5054873;28;19939;-88
2023/01/10 04:09:02;;;;;;;;;;;4.30;90.30;;;;;;5054977;28;20418;-88
2023/01/10 04:11:28;;;;;;;;;;;4.30;90.60;;;;;;5055009;28;20474;-88
2023/01/10 04:13:53;;;;;;;;;;;4.60;90.90;;;;;;5049880;28;19998;-88
2023/01/10 04:16:19;;;;;;;;;;;4.60;90.20;;;;;;5050266;28;20425;-88
2023/01/10 04:18:44;;;;;;;;;;;4.60;90.10;;;;;;5034944;28;20440;-88
2023/01/10 04:21:10;;;;;;;;;;;4.70;90.10;;;;;;5034875;28;20032;-88
2023/01/10 04:23:35;;;;;;;;;;;5.00;88.30;;;;;;5037132;28;20402;-88
2023/01/10 04:26:01;;;;;;;;;;;4.90;88.10;;;;;;5054760;28;19943;-88
2023/01/10 04:28:26;;;;;;;;;;;4.80;87.80;;;;;;5054744;28;19944;-89
2023/01/10 04:30:52;;;;;;;;;;;4.80;87.50;;;;;;5054680;28;19940;-88
2023/01/10 04:33:18;;;;;;;;;;;4.80;87.20;;;;;;5054379;28;20454;-88
2023/01/10 04:35:47;;;;;;;;;;;4.80;85.90;;;;;;5034759;28;20014;-89
2023/01/10 04:38:12;;;;;;;;;;;4.70;86.10;;;;;;5034918;28;20011;-88
2023/01/10 04:40:38;;;;;;;;;;;4.80;85.50;;;;;;5034504;28;20389;-88
2023/01/10 04:43:03;;;;;;;;;;;4.80;85.70;;;;;;5034482;28;19945;-88
2023/01/10 04:45:29;;;;;;;;;;;4.60;85.60;;;;;;5051238;28;19946;-88
2023/01/10 04:47:55;;;;;;;;;;;4.80;85.30;;;;;;5054353;28;19981;-88
2023/01/10 04:50:21;;;;;;;;;;;4.80;84.90;;;;;;5054359;28;19971;-88
2023/01/10 04:52:47;;;;;;;;;;;4.80;84.80;;;;;;5054217;28;19960;-88
2023/01/10 04:55:12;;;;;;;;;;;4.80;83.60;;;;;;5038739;28;19942;-89
2023/01/10 04:57:38;;;;;;;;;;;4.80;83.50;;;;;;5034249;28;19947;-88
2023/01/10 05:00:04;;;;;;;;;;;5.10;81.90;;;;;;5034171;28;19941;-89
2023/01/10 05:02:29;;;;;;;;;;;5.20;80.80;;;;;;5034066;28;20416;-88
2023/01/10 05:04:55;;;;;;;;;;;5.10;80.80;;;;;;5046392;28;20289;-89
2023/01/10 05:07:20;;;;;;;;;;;5.10;81.30;;;;;;5053999;28;20437;-88
2023/01/10 05:09:46;;;;;;;;;;;5.20;81.70;;;;;;5053943;28;20278;-88
2023/01/10 05:12:11;;;;;;;;;;;5.00;82.90;;;;;;5053893;28;19937;-88
2023/01/10 05:14:37;;;;;;;;;;;4.90;83.80;;;;;;5043809;28;20040;-88
2023/01/10 05:17:02;;;;;;;;;;;4.60;84.30;;;;;;5033622;28;20321;-88
2023/01/10 05:19:28;;;;;;;;;;;4.40;84.50;;;;;;5033296;28;20317;-89
2023/01/10 05:21:53;;;;;;;;;;;4.10;84.90;;;;;;5033735;28;20440;-89
2023/01/10 05:24:19;;;;;;;;;;;4.40;85.40;;;;;;5040605;28;19941;-88
2023/01/10 05:26:44;;;;;;;;;;;4.30;84.50;;;;;;5053649;28;20034;-88
2023/01/10 05:29:10;;;;;;;;;;;4.20;84.70;;;;;;5053618;28;19954;-88
2023/01/10 05:31:36;;;;;;;;;;;4.40;82.20;;;;;;5035608;28;19931;-89
2023/01/10 05:34:01;;;;;;;;;;;4.90;78.10;;;;;;5030961;28;19946;-88
2023/01/10 05:36:27;;;;;;;;;;;5.00;78.10;;;;;;5033567;28;20455;-88
2023/01/10 05:38:52;;;;;;;;;;;5.10;79.20;;;;;;5033510;28;19985;-88
2023/01/10 05:41:18;;;;;;;;;;;5.30;79.90;;;;;;5033404;28;19962;-87
2023/01/10 05:43:43;;;;;;;;;;;5.50;79.50;;;;;;5034736;28;19938;-88
2023/01/10 05:46:09;;;;;;;;;;;5.30;80.00;;;;;;5053321;28;19938;-88
2023/01/10 05:48:34;;;;;;;;;;;5.10;80.80;;;;;;5053265;28;20041;-88
2023/01/10 05:51:00;;;;;;;;;;;5.10;79.30;;;;;;5052755;28;19946;-89
2023/01/10 05:53:25;;;;;;;;;;;5.20;77.80;;;;;;5053138;28;20326;-88
2023/01/10 05:55:55;;;;;;;;;;;5.10;78.30;;;;;;5034609;28;19959;-88
2023/01/10 05:58:21;;;;;;;;;;;5.20;78.50;;;;;;5051213;28;20015;-88
2023/01/10 06:00:47;;;;;;;;;;;5.20;79.20;;;;;;5052580;28;20390;-88
2023/01/10 06:03:12;;;;;;;;;;;5.10;79.50;;;;;;5050946;28;19948;-88
2023/01/10 06:05:38;;;;;;;;;;;4.90;79.10;;;;;;5045164;28;19941;-88
2023/01/10 06:08:03;;;;;;;;;;;5.00;78.00;;;;;;5024652;28;20404;-88
2023/01/10 06:10:29;;;;;;;;;;;5.10;78.60;;;;;;5050898;28;19949;-87
2023/01/10 06:12:54;;;;;;;;;;;5.10;79.80;;;;;;5047267;28;19999;-87
2023/01/10 06:15:20;;;;;;;;;;;4.70;80.50;;;;;;5049613;28;19970;-87
2023/01/10 06:17:45;;;;;;;;;;;4.40;81.10;;;;;;5051023;28;19941;-87
2023/01/10 06:20:12;;;;;;;;;;;4.40;82.10;;;;;;5041360;28;19951;-87
2023/01/10 06:22:41;;;;;;;;;;;4.30;82.90;;;;;;5046213;28;20024;-87
2023/01/10 06:25:08;;;;;;;;;;;4.20;82.70;;;;;;5037872;28;19936;-87
2023/01/10 06:27:33;;;;;;;;;;;3.90;82.60;;;;;;5033820;28;20389;-87
2023/01/10 06:30:00;;;;;;;;;;;4.00;79.70;;;;;;5045034;28;19937;-87
2023/01/10 06:32:26;;;;;;;;;;;4.60;76.30;;;;;;5048790;28;19968;-87
2023/01/10 06:34:51;;;;;;;;;;;5.00;73.90;;;;;;5049391;28;20062;-88
2023/01/10 06:37:17;;;;;;;;;;;5.10;74.10;;;;;;5039412;28;20040;-88
2023/01/10 06:39:45;;;;;;;;;;;5.10;74.80;;;;;;5039899;28;19939;-87
2023/01/10 06:42:10;;;;;;;;;;;5.00;77.20;;;;;;5049058;28;19956;-87
2023/01/10 06:44:36;;;;;;;;;;;5.00;76.80;;;;;;5046495;28;19950;-87
2023/01/10 06:47:02;;;;;;;;;;;5.00;75.90;;;;;;5051914;28;19937;-87
2023/01/10 06:49:28;;;;;;;;;;;5.10;75.90;;;;;;5051038;28;20034;-87
2023/01/10 06:51:54;;;;;;;;;;;5.20;76.90;;;;;;5051602;28;19946;-87
2023/01/10 06:54:19;;;;;;;;;;;5.00;78.10;;;;;;5053096;28;20038;-87
2023/01/10 06:56:48;;;;;;;;;;;4.60;79.00;;;;;;5049919;28;19953;-87
2023/01/10 06:59:13;;;;;;;;;;;4.30;79.80;;;;;;5055297;28;19941;-87
2023/01/10 07:01:39;;;;;;;;;;;4.20;81.30;;;;;;5044330;28;19965;-87
2023/01/10 07:04:04;;;;;;;;;;;4.00;82.30;;;;;;5046257;28;20296;-87
2023/01/10 07:06:31;;;;;;;;;;;3.90;82.90;;;;;;5043849;28;19954;-88
2023/01/10 07:08:56;;;;;;;;;;;3.70;83.30;;;;;;5047875;28;19979;-87
2023/01/10 07:11:22;;;;;;;;;;;3.50;84.00;;;;;;5027284;28;19993;-88
2023/01/10 07:13:48;;;;;;;;;;;3.30;84.80;;;;;;5051402;28;19949;-87
2023/01/10 07:16:14;;;;;;;;;;;3.30;85.80;;;;;;5045212;28;20014;-88
2023/01/10 07:18:40;;;;;;;;;;;3.60;85.80;;;;;;5045595;28;19941;-87
2023/01/10 07:21:06;;;;;;;;;;;3.40;85.80;;;;;;5030778;28;20446;-87
2023/01/10 07:23:31;;;;;;;;;;;3.20;86.70;;;;;;5042061;28;19947;-87
2023/01/10 07:26:00;;;;;;;;;;;3.00;87.30;;;;;;5033738;28;19986;-87
2023/01/10 07:28:26;;;;;;;;;;;3.00;88.30;;;;;;5042752;28;20326;-88
2023/01/10 07:30:51;;;;;;;;;;;3.00;88.30;;;;;;5045454;28;20008;-87
2023/01/10 07:33:17;;;;;;;;;;;2.70;88.80;;;;;;5050466;28;19946;-87
2023/01/10 07:35:43;;;;;;;;;;;2.70;89.40;;;;;;5045285;28;19941;-88
2023/01/10 07:38:08;;;;;;;;;;;2.80;90.10;;;;;;5042975;28;20342;-88
2023/01/10 07:40:34;;;;;;;;;;;2.90;90.20;;;;;;5050628;28;20684;-88
2023/01/10 07:43:00;;;;;;;;;;;3.00;90.40;;;;;;5051879;28;19944;-88
2023/01/10 07:45:26;;;;;;;;;;;3.00;90.50;;;;;;5041311;28;19995;-88
2023/01/10 07:47:56;;;;;;;;;;;2.90;90.70;;;;;;5049065;28;19984;-88
2023/01/10 07:50:21;;;;;;;;;;;3.00;91.20;;;;;;5046099;28;19946;-88
2023/01/10 07:52:46;;;;;;;;;;;3.00;91.50;;;;;;5047923;28;19956;-88
2023/01/10 07:55:12;;;;;;;;;;;3.00;91.60;;;;;;5027471;28;20368;-87
2023/01/10 07:57:38;;;;;;;;;;;3.10;91.90;;;;;;5046251;28;19972;-88
2023/01/10 08:00:03;;;;;;;;;;;3.40;92.00;;;;;;5036449;28;19944;-88
2023/01/10 08:02:29;;;;;;;;;;;3.40;91.80;;;;;;5042928;28;19978;-87
2023/01/10 08:04:54;;;;;;;;;;;3.60;91.80;;;;;;5053510;28;20326;-88
2023/01/10 08:07:20;;;;;;;;;;;3.80;91.20;;;;;;5048334;28;20003;-88
2023/01/10 08:09:45;;;;;;;;;;;3.90;90.70;;;;;;5038114;28;20094;-88
2023/01/10 08:12:11;;;;;;;;;;;3.80;90.50;;;;;;5042309;28;19951;-89
2023/01/10 08:14:36;;;;;;;;;;;3.90;90.60;;;;;;5040973;28;20074;-88
2023/01/10 08:17:02;;;;;;;;;;;4.10;90.20;;;;;;5050110;28;19957;-88
2023/01/10 08:19:27;;;;;;;;;;;4.10;90.30;;;;;;5046346;28;19945;-88
2023/01/10 08:21:53;;;;;;;;;;;4.00;90.30;;;;;;5047711;28;19946;-88
2023/01/10 08:24:19;;;;;;;;;;;4.00;90.60;;;;;;5040265;28;19964;-88
2023/01/10 08:26:44;;;;;;;;;;;4.10;91.00;;;;;;5043500;28;19951;-88
2023/01/10 08:29:10;;;;;;;;;;;4.20;90.60;;;;;;5047348;28;20076;-88
2023/01/10 08:31:35;;;;;;;;;;;4.20;90.40;;;;;;5046628;28;19975;-88
2023/01/10 08:34:01;;;;;;;;;;;4.50;90.20;;;;;;5040774;28;20052;-88
2023/01/10 08:36:28;;;;;;;;;;;4.80;88.70;;;;;;5046037;28;19980;-88
2023/01/10 08:38:54;;;;;;;;;;;4.90;88.00;;;;;;5025511;28;19944;-88
2023/01/10 08:41:20;;;;;;;;;;;5.20;87.50;;;;;;5045267;28;20048;-88
2023/01/10 08:43:48;;;;;;;;;;;5.20;87.20;;;;;;5039077;28;20455;-88
2023/01/10 08:46:14;;;;;;;;;;;5.40;86.70;;;;;;5038239;28;20366;-88
2023/01/10 08:48:39;;;;;;;;;;;5.50;86.30;;;;;;5025603;28;19987;-88
2023/01/10 08:51:06;;;;;;;;;;;5.60;86.00;;;;;;5041936;28;19942;-88
2023/01/10 08:53:32;;;;;;;;;;;5.60;86.00;;;;;;5041085;28;19985;-88
2023/01/10 08:55:57;;;;;;;;;;;5.60;86.20;;;;;;5046074;28;20402;-88
2023/01/10 08:58:23;;;;;;;;;;;5.70;86.40;;;;;;5044644;28;19945;-88
2023/01/10 09:00:50;;;;;;;;;;;5.80;87.10;;;;;;5040215;28;19959;-88
2023/01/10 09:03:15;;;;;;;;;;;5.90;87.70;;;;;;5024271;28;19942;-88
2023/01/10 09:05:41;;;;;;;;;;;6.20;86.60;;;;;;5040512;28;20484;-88
2023/01/10 09:08:06;;;;;;;;;;;6.40;84.60;;;;;;5041508;28;19941;-88
2023/01/10 09:10:32;;;;;;;;;;;6.60;83.90;;;;;;5046759;28;19956;-88
2023/01/10 09:13:00;;;;;;;;;;;6.50;82.60;;;;;;5043618;28;19950;-88
2023/01/10 09:15:30;;;;;;;;;;;6.60;82.00;;;;;;5046060;28;19966;-88
2023/01/10 09:17:56;;;;;;;;;;;6.90;81.30;;;;;;5040525;28;20001;-89
2023/01/10 09:20:23;;;;;;;;;;;7.00;80.90;;;;;;5041670;28;19947;-89
2023/01/10 09:22:49;;;;;;;;;;;7.10;81.50;;;;;;5046582;28;19954;-88
2023/01/10 09:25:14;;;;;;;;;;;7.20;81.40;;;;;;5025596;28;19956;-88
2023/01/10 09:27:40;;;;;;;;;;;7.30;81.40;;;;;;5029540;28;19955;-88
2023/01/10 09:30:05;;;;;;;;;;;7.40;81.50;;;;;;5047862;28;20404;-88
2023/01/10 09:32:31;;;;;;;;;;;7.40;82.20;;;;;;5044059;28;19958;-88
2023/01/10 09:34:57;;;;;;;;;;;7.60;82.10;;;;;;5028761;28;20401;-88
2023/01/10 09:37:22;;;;;;;;;;;7.90;80.40;;;;;;5048765;28;20565;-88
2023/01/10 09:39:48;;;;;;;;;;;8.00;79.20;;;;;;5041582;28;19953;-88
2023/01/10 09:42:21;;;;;;;;;;;8.20;78.90;;;;;;5042954;28;20411;-88
2023/01/10 09:44:53;;;;;;;;;;;8.30;79.50;;;;;;5044071;28;19941;-88
2023/01/10 09:47:21;;;;;;;;;;;8.30;79.10;;;;;;5041892;28;20042;-88
2023/01/10 09:49:53;;;;;;;;;;;8.40;78.90;;;;;;5044556;28;20534;-88
2023/01/10 09:52:21;;;;;;;;;;;8.40;79.50;;;;;;5043607;28;19961;-89
2023/01/10 09:54:47;;;;;;;;;;;8.30;79.40;;;;;;5044006;28;19953;-89
2023/01/10 09:57:15;;;;;;;;;;;8.40;80.20;;;;;;5040535;28;19950;-89
2023/01/10 09:59:41;;;;;;;;;;;8.60;79.50;;;;;;5036747;28;19942;-89
2023/01/10 10:02:19;;;;;;;;;;;8.90;79.10;;;;;;5044601;28;19940;-88
2023/01/10 10:05:05;;;;;;;;;;;9.20;79.20;;;;;;5044542;28;19940;-88
2023/01/10 10:07:30;;;;;;;;;;;9.30;79.50;;;;;;5037937;28;19952;-88
2023/01/10 10:09:56;;;;;;;;;;;9.50;78.60;;;;;;5047877;28;19950;-88
2023/01/10 10:12:24;;;;;;;;;;;9.50;77.80;;;;;;5046200;28;19950;-88
2023/01/10 10:15:01;;;;;;;;;;;9.50;77.80;;;;;;5030049;28;19981;-88
2023/01/10 10:17:40;;;;;;;;;;;9.60;78.60;;;;;;5039547;28;20691;-88
2023/01/10 10:20:05;;;;;;;;;;;9.70;78.20;;;;;;5041374;28;19956;-88
2023/01/10 10:22:51;;;;;;;;;;;9.70;75.80;;;;;;5043371;28;19962;-88
2023/01/10 10:25:25;;;;;;;;;;;9.70;76.20;;;;;;5026947;28;19968;-88
2023/01/10 10:28:10;;;;;;;;;;;9.70;72.30;;;;;;5045950;28;19949;-89
2023/01/10 10:30:44;;;;;;;;;;;9.80;72.80;;;;;;5046173;28;19946;-89
2023/01/10 10:33:28;;;;;;;;;;;10.00;72.80;;;;;;5043212;28;19939;-89
2023/01/10 10:36:07;;;;;;;;;;;10.20;75.20;;;;;;5042580;28;19972;-89
2023/01/10 10:38:36;;;;;;;;;;;10.30;76.50;;;;;;5045296;28;19953;-88
2023/01/10 10:41:02;;;;;;;;;;;10.40;77.60;;;;;;5044431;28;20379;-88
2023/01/10 10:43:32;;;;;;;;;;;10.60;74.70;;;;;;5048692;28;19943;-88
2023/01/10 10:45:59;;;;;;;;;;;10.70;74.40;;;;;;5018554;28;19947;-88
2023/01/10 10:48:46;;;;;;;;;;;10.80;74.10;;;;;;5047953;28;19957;-88
2023/01/10 10:51:18;;;;;;;;;;;10.70;72.70;;;;;;5044689;28;20349;-88
2023/01/10 10:53:45;;;;;;;;;;;10.70;73.30;;;;;;5045292;28;19986;-88
2023/01/10 10:56:13;;;;;;;;;;;10.90;75.70;;;;;;5045542;28;19988;-88
2023/01/10 10:58:40;;;;;;;;;;;11.00;74.90;;;;;;5044680;28;19971;-88
2023/01/10 11:01:05;;;;;;;;;;;11.10;73.30;;;;;;5043722;28;20056;-89
2023/01/10 11:03:37;;;;;;;;;;;11.30;72.40;;;;;;5044575;28;20440;-88
2023/01/10 11:06:04;;;;;;;;;;;11.40;73.50;;;;;;5037841;28;20021;-89
2023/01/10 11:08:30;;;;;;;;;;;11.60;74.20;;;;;;5026263;28;20441;-89
2023/01/10 11:10:57;;;;;;;;;;;11.80;73.10;;;;;;5050321;28;19948;-89
2023/01/10 11:13:23;;;;;;;;;;;12.00;71.40;;;;;;5039737;28;20043;-89
2023/01/10 11:15:49;;;;;;;;;;;12.10;70.70;;;;;;5056844;23;20467;-89
2023/01/10 11:18:19;;;;;;;;;;;12.10;70.50;;;;;;5051444;28;19942;-88
2023/01/10 11:20:46;;;;;;;;;;;12.10;70.10;;;;;;5053107;28;19947;-88
2023/01/10 11:23:20;;;;;;;;;;;12.10;68.90;;;;;;5054830;28;19994;-88
2023/01/10 11:25:46;;;;;;;;;;;12.20;69.80;;;;;;5052926;28;19943;-88
2023/01/10 11:28:13;;;;;;;;;;;12.40;69.20;;;;;;5054071;28;19958;-89
2023/01/10 11:30:38;;;;;;;;;;;12.60;68.90;;;;;;5047701;28;19950;-89
2023/01/10 11:33:05;;;;;;;;;;;12.90;67.80;;;;;;5051859;28;20047;-89
2023/01/10 11:35:36;;;;;;;;;;;13.10;67.10;;;;;;5053162;28;19944;-88
2023/01/10 11:38:03;;;;;;;;;;;13.40;67.20;;;;;;5054787;28;19948;-89
2023/01/10 11:40:30;;;;;;;;;;;13.80;67.00;;;;;;5055456;28;20015;-89
2023/01/10 11:42:56;;;;;;;;;;;14.20;65.50;;;;;;5054330;28;19967;-89
2023/01/10 11:45:23;;;;;;;;;;;14.60;63.70;;;;;;5049606;28;19988;-89
2023/01/10 11:48:06;;;;;;;;;;;14.60;63.70;;;;;;5051739;28;20053;-89
2023/01/10 11:50:34;;;;;;;;;;;14.60;63.10;;;;;;5048269;28;19949;-88
2023/01/10 11:53:00;;;;;;;;;;;14.60;63.40;;;;;;5052630;28;19965;-88
2023/01/10 11:55:29;;;;;;;;;;;15.00;63.50;;;;;;5044212;28;20602;-88
2023/01/10 11:58:06;;;;;;;;;;;15.40;61.30;;;;;;5052908;28;19941;-89
2023/01/10 12:00:49;;;;;;;;;;;16.20;59.90;;;;;;5049731;28;20144;-88
2023/01/10 12:03:15;;;;;;;;;;;17.00;55.50;;;;;;5048447;28;19963;-89
2023/01/10 12:05:47;;;;;;;;;;;18.30;52.80;;;;;;5048095;28;19941;-89
2023/01/10 12:08:22;;;;;;;;;;;19.60;48.70;;;;;;5050066;28;19973;-89
2023/01/10 12:10:56;;;;;;;;;;;20.60;47.20;;;;;;5054692;28;19970;-89
2023/01/10 12:13:21;;;;;;;;;;;21.30;45.00;;;;;;5054447;28;20325;-89
2023/01/10 12:15:48;;;;;;;;;;;21.50;45.20;;;;;;5054918;28;19984;-89
2023/01/10 12:18:16;;;;;;;;;;;21.50;43.00;;;;;;5053498;28;20098;-89
2023/01/10 12:20:50;;;;;;;;;;;21.40;43.90;;;;;;5035033;28;20011;-89
2023/01/10 12:23:16;;;;;;;;;;;21.20;43.90;;;;;;5053588;28;20343;-89
2023/01/10 12:25:43;;;;;;;;;;;20.80;44.50;;;;;;5045826;28;20417;-89
2023/01/10 12:28:26;;;;;;;;;;;20.50;45.10;;;;;;5029984;28;19983;-89
2023/01/10 12:30:53;;;;;;;;;;;20.50;46.10;;;;;;5050216;28;19950;-89
2023/01/10 12:33:21;;;;;;;;;;;21.10;45.10;;;;;;5052640;28;19942;-89
2023/01/10 12:35:50;;;;;;;;;;;21.30;42.10;;;;;;5051983;28;20296;-89
2023/01/10 12:44:21;;;;;;;;;;;21.70;42.60;;;;;;5053366;28;20040;-89
2023/01/10 12:46:49;;;;;;;;;;;21.70;42.40;;;;;;5054198;28;19951;-89
2023/01/10 12:49:35;;;;;;;;;;;21.80;42.00;;;;;;5050576;28;19941;-89
2023/01/10 12:52:04;;;;;;;;;;;21.60;42.00;;;;;;5049429;28;19947;-88
2023/01/10 12:54:30;;;;;;;;;;;21.30;43.30;;;;;;5052231;28;19950;-89
2023/01/10 12:57:00;;;;;;;;;;;20.90;41.60;;;;;;5034549;28;20447;-89
2023/01/10 12:59:33;;;;;;;;;;;20.60;38.90;;;;;;5052056;28;19952;-88
2023/01/10 13:02:00;;;;;;;;;;;20.80;37.10;;;;;;5033979;28;20045;-89
2023/01/10 13:04:27;;;;;;;;;;;21.00;35.50;;;;;;5048205;28;19946;-89
2023/01/10 13:06:53;;;;;;;;;;;21.60;39.00;;;;;;5042785;28;19949;-89
2023/01/10 13:09:21;;;;;;;;;;;22.00;36.90;;;;;;5043651;28;20086;-89
2023/01/10 13:11:52;;;;;;;;;;;22.20;33.60;;;;;;5051488;28;19944;-89
2023/01/10 13:14:20;;;;;;;;;;;23.00;31.20;;;;;;5048225;28;19944;-89
2023/01/10 13:16:51;;;;;;;;;;;24.10;31.00;;;;;;5044465;28;20687;-89
2023/01/10 13:19:20;;;;;;;;;;;24.80;30.50;;;;;;5049967;28;19951;-89
2023/01/10 13:21:46;;;;;;;;;;;24.00;27.90;;;;;;5048355;28;19959;-89
2023/01/10 13:24:16;;;;;;;;;;;23.50;25.80;;;;;;5052007;28;20026;-89
2023/01/10 13:26:45;;;;;;;;;;;23.20;24.90;;;;;;5046264;28;19978;-88
2023/01/10 13:29:14;;;;;;;;;;;22.80;28.40;;;;;;5047384;28;19957;-89
2023/01/10 13:31:40;;;;;;;;;;;22.80;27.70;;;;;;5046519;28;19951;-89
2023/01/10 13:34:13;;;;;;;;;;;23.20;28.50;;;;;;5046111;28;19954;-89
2023/01/10 13:36:40;;;;;;;;;;;24.00;26.10;;;;;;5044823;28;19948;-89
2023/01/10 13:39:15;;;;;;;;;;;24.70;24.00;;;;;;5049553;28;19998;-89
2023/01/10 13:44:59;;;;;;;;;;;25.00;23.70;;;;;;5049370;28;19953;-88
2023/01/10 13:47:39;;;;;;;;;;;24.50;23.50;;;;;;5049059;28;19966;-88
2023/01/10 13:50:34;;;;;;;;;;;24.10;21.50;;;;;;5049307;28;19945;-88
2023/01/10 13:53:01;;;;;;;;;;;23.80;24.00;;;;;;5050093;28;19980;-88
2023/01/10 13:55:27;;;;;;;;;;;23.40;22.70;;;;;;5043106;28;20281;-88
2023/01/10 13:58:01;;;;;;;;;;;21.90;24.20;;;;;;5050242;28;19951;-88
2023/01/10 14:03:30;;;;;;;;;;;21.10;27.20;;;;;;5043821;28;20039;-88
2023/01/10 14:05:55;;;;;;;;;;;21.10;26.60;;;;;;5046486;28;20435;-88
2023/01/10 14:08:21;;;;;;;;;;;22.10;24.60;;;;;;5048408;28;19952;-88
2023/01/10 14:11:03;;;;;;;;;;;22.80;23.70;;;;;;5048553;28;20033;-88
2023/01/10 14:13:28;;;;;;;;;;;23.20;24.30;;;;;;5048208;28;19984;-89
2023/01/10 14:15:54;;;;;;;;;;;23.50;25.20;;;;;;5045529;28;20462;-89
2023/01/10 14:18:19;;;;;;;;;;;24.40;22.00;;;;;;5038697;28;19954;-88
2023/01/10 14:20:54;;;;;;;;;;;24.70;21.40;;;;;;5047189;28;19948;-88
2023/01/10 14:23:21;;;;;;;;;;;24.60;22.90;;;;;;5048556;28;19952;-87
2023/01/10 14:25:54;;;;;;;;;;;24.40;23.10;;;;;;5047026;28;19962;-88
2023/01/10 14:28:24;;;;;;;;;;;24.40;21.30;;;;;;5049324;28;19966;-89
2023/01/10 14:30:58;;;;;;;;;;;24.40;22.90;;;;;;5047077;28;20413;-89
2023/01/10 14:33:23;;;;;;;;;;;24.30;23.40;;;;;;5050583;28;20044;-89
2023/01/10 14:35:50;;;;;;;;;;;24.20;25.20;;;;;;5042371;28;20101;-89
2023/01/10 14:38:23;;;;;;;;;;;23.90;24.10;;;;;;5048068;28;20014;-88
2023/01/10 14:40:49;;;;;;;;;;;22.00;24.90;;;;;;5049917;28;19997;-88
2023/01/10 14:43:16;;;;;;;;;;;20.80;26.00;;;;;;5047772;28;19941;-88
2023/01/10 14:45:50;;;;;;;;;;;20.00;26.70;;;;;;5046568;28;19949;-88
2023/01/10 14:48:16;;;;;;;;;;;19.80;27.50;;;;;;5050487;28;19943;-87
2023/01/10 14:50:43;;;;;;;;;;;19.40;27.80;;;;;;5047460;28;20281;-88
2023/01/10 14:53:23;;;;;;;;;;;20.40;26.60;;;;;;5052004;28;19962;-88